createdAt,value
2022-08-17T00:02:09.882Z,20.139999
2022-08-17T00:05:33.213Z,20.120001
2022-08-17T00:08:58.425Z,20.1
2022-08-17T00:12:35.540Z,20.07
2022-08-17T00:15:48.820Z,20.040001
2022-08-17T00:19:14.034Z,20.040001
2022-08-17T00:22:39.229Z,20.059999
2022-08-17T00:26:04.406Z,20.07
2022-08-17T00:29:29.619Z,20.07
2022-08-17T00:33:10.551Z,20.110001
2022-08-17T00:36:19.992Z,20.139999
2022-08-17T00:39:45.269Z,20.18
2022-08-17T00:43:10.413Z,20.15
2022-08-17T00:46:35.607Z,20.129999
2022-08-17T00:50:00.851Z,20.129999
2022-08-17T00:53:26.039Z,20.1
2022-08-17T00:56:51.241Z,20.07
2022-08-17T01:00:16.427Z,20.02
2022-08-17T01:03:41.649Z,19.969999
2022-08-17T01:07:06.866Z,19.969999
2022-08-17T01:10:58.050Z,19.959999
2022-08-17T01:13:57.294Z,19.940001
2022-08-17T01:17:22.524Z,19.92
2022-08-17T01:20:47.983Z,19.879999
2022-08-17T01:24:12.937Z,19.82
2022-08-17T01:27:38.161Z,19.77
2022-08-17T01:31:03.353Z,19.76
2022-08-17T01:34:38.064Z,19.719999
2022-08-17T01:37:53.813Z,19.68
2022-08-17T01:41:19.034Z,19.66
2022-08-17T01:44:44.262Z,19.66
2022-08-17T01:48:09.489Z,19.639999
2022-08-17T01:51:34.745Z,19.620001
2022-08-17T01:54:59.936Z,19.59
2022-08-17T01:58:25.164Z,19.6
2022-08-17T02:01:50.450Z,19.620001
2022-08-17T02:05:15.642Z,19.65
2022-08-17T02:09:02.099Z,19.66
2022-08-17T02:12:37.530Z,19.620001
2022-08-17T02:15:31.274Z,19.58
2022-08-17T02:18:56.468Z,19.559999
2022-08-17T02:22:21.690Z,19.559999
2022-08-17T02:25:46.879Z,19.6
2022-08-17T02:29:12.109Z,19.610001
2022-08-17T02:32:37.315Z,19.639999
2022-08-17T02:36:02.568Z,19.620001
2022-08-17T02:39:27.837Z,19.58
2022-08-17T02:42:53.029Z,19.530001
2022-08-17T02:46:18.309Z,19.48
2022-08-17T02:49:47.593Z,19.450001
2022-08-17T02:53:08.764Z,19.440001
2022-08-17T02:56:33.946Z,19.440001
2022-08-17T02:59:59.195Z,19.389999
2022-08-17T03:03:24.434Z,19.360001
2022-08-17T03:06:49.653Z,19.34
2022-08-17T03:10:14.854Z,19.32
2022-08-17T03:13:40.126Z,19.309999
2022-08-17T03:17:05.376Z,19.33
2022-08-17T03:20:30.590Z,19.33
2022-08-17T03:23:55.779Z,19.35
2022-08-17T03:27:21.041Z,19.379999
2022-08-17T03:30:46.287Z,19.389999
2022-08-17T03:34:11.534Z,19.42
2022-08-17T03:37:36.758Z,19.440001
2022-08-17T03:41:02.017Z,19.42
2022-08-17T03:44:27.199Z,19.370001
2022-08-17T03:47:52.470Z,19.34
2022-08-17T03:51:17.693Z,19.33
2022-08-17T03:54:42.944Z,19.34
2022-08-17T03:58:08.169Z,19.360001
2022-08-17T04:01:33.468Z,19.370001
2022-08-17T04:04:58.632Z,19.370001
2022-08-17T04:08:23.870Z,19.389999
2022-08-17T04:11:49.105Z,19.379999
2022-08-17T04:15:14.334Z,19.360001
2022-08-17T04:18:51.063Z,19.34
2022-08-17T04:22:31.568Z,19.34
2022-08-17T04:25:41.543Z,19.389999
2022-08-17T04:29:06.748Z,19.440001
2022-08-17T04:32:59.588Z,19.459999
2022-08-17T04:35:57.261Z,19.48
2022-08-17T04:39:22.499Z,19.51
2022-08-17T04:42:47.741Z,19.57
2022-08-17T04:46:13.006Z,19.66
2022-08-17T04:49:38.214Z,19.75
2022-08-17T04:53:03.496Z,19.860001
2022-08-17T04:56:28.674Z,19.98
2022-08-17T04:59:53.896Z,20.059999
2022-08-17T05:03:19.163Z,20.129999
2022-08-17T05:06:44.393Z,20.209999
2022-08-17T05:10:09.658Z,20.290001
2022-08-17T05:13:34.832Z,20.360001
2022-08-17T05:17:00.055Z,20.43
2022-08-17T05:20:25.256Z,20.469999
2022-08-17T05:23:54.700Z,20.51
2022-08-17T05:27:19.024Z,20.58
2022-08-17T05:30:40.903Z,20.639999
2022-08-17T05:34:06.126Z,20.76
2022-08-17T05:37:31.366Z,20.879999
2022-08-17T05:40:56.562Z,20.959999
2022-08-17T05:44:21.808Z,21.07
2022-08-17T05:47:47.002Z,21.17
2022-08-17T05:51:12.203Z,21.26
2022-08-17T05:54:37.453Z,21.389999
2022-08-17T05:58:02.646Z,21.48
2022-08-17T06:01:27.956Z,21.559999
2022-08-17T06:04:53.078Z,21.66
2022-08-17T06:08:18.325Z,21.809999
2022-08-17T06:11:43.521Z,22.01
2022-08-17T06:15:08.771Z,22.24
2022-08-17T06:18:33.998Z,22.49
2022-08-17T06:21:59.233Z,22.719999
2022-08-17T06:25:24.519Z,22.959999
2022-08-17T06:28:49.791Z,23.23
2022-08-17T06:32:14.976Z,23.459999
2022-08-17T06:35:40.238Z,23.76
2022-08-17T06:39:05.430Z,23.99
2022-08-17T06:42:54.265Z,24.110001
2022-08-17T06:45:55.845Z,24.209999
2022-08-17T06:49:21.064Z,24.27
2022-08-17T06:52:56.144Z,24.33
2022-08-17T06:56:11.498Z,24.360001
2022-08-17T06:59:54.841Z,24.41
2022-08-17T07:03:01.892Z,24.440001
2022-08-17T07:06:27.092Z,24.49
2022-08-17T07:09:52.343Z,24.52
2022-08-17T07:13:17.550Z,24.540001
2022-08-17T07:16:42.759Z,24.559999
2022-08-17T07:20:07.998Z,24.58
2022-08-17T07:23:33.236Z,24.620001
2022-08-17T07:26:58.465Z,24.629999
2022-08-17T07:30:23.770Z,24.66
2022-08-17T07:33:49.669Z,24.690001
2022-08-17T07:37:14.871Z,24.719999
2022-08-17T07:40:40.218Z,24.780001
2022-08-17T07:44:05.354Z,24.889999
2022-08-17T07:47:30.662Z,24.98
2022-08-17T07:50:55.927Z,25.07
2022-08-17T07:54:21.181Z,25.209999
2022-08-17T07:57:46.400Z,25.32
2022-08-17T08:01:11.604Z,25.42
2022-08-17T08:04:58.772Z,25.51
2022-08-17T08:08:02.034Z,25.620001
2022-08-17T08:11:27.214Z,25.76
2022-08-17T08:14:52.439Z,25.860001
2022-08-17T08:18:17.644Z,25.959999
2022-08-17T08:21:42.845Z,26.059999
2022-08-17T08:25:08.054Z,26.16
2022-08-17T08:28:33.270Z,26.24
2022-08-17T08:31:58.484Z,26.299999
2022-08-17T08:35:23.676Z,26.35
2022-08-17T08:38:48.871Z,26.450001
2022-08-17T08:42:14.081Z,26.540001
2022-08-17T08:45:39.313Z,26.6
2022-08-17T08:49:10.314Z,26.66
2022-08-17T08:52:29.756Z,26.68
2022-08-17T08:55:54.942Z,26.67
2022-08-17T08:59:20.129Z,26.719999
2022-08-17T09:02:45.334Z,26.719999
2022-08-17T09:06:28.633Z,26.74
2022-08-17T09:09:35.714Z,26.77
2022-08-17T09:13:09.239Z,26.809999
2022-08-17T09:16:26.137Z,26.889999
2022-08-17T09:19:51.323Z,26.959999
2022-08-17T09:23:16.522Z,27.08
2022-08-17T09:26:41.732Z,27.23
2022-08-17T09:30:06.926Z,27.389999
2022-08-17T09:33:32.085Z,27.57
2022-08-17T09:36:57.304Z,27.68
2022-08-17T09:40:22.538Z,27.629999
2022-08-17T09:43:47.664Z,27.639999
2022-08-17T09:47:12.855Z,27.73
2022-08-17T09:50:55.874Z,27.809999
2022-08-17T09:54:21.304Z,27.91
2022-08-17T09:57:30.618Z,28
2022-08-17T10:00:53.877Z,28.1
2022-08-17T10:04:20.294Z,28.25
2022-08-17T10:07:44.293Z,28.4
2022-08-17T10:11:09.469Z,28.549999
2022-08-17T10:14:36.142Z,28.709999
2022-08-17T10:18:00.003Z,28.860001
2022-08-17T10:21:25.225Z,29
2022-08-17T10:25:02.216Z,29.09
2022-08-17T10:28:19.805Z,29.120001
2022-08-17T10:31:40.834Z,29.18
2022-08-17T10:35:06.004Z,29.299999
2022-08-17T10:38:31.207Z,29.42
2022-08-17T10:41:56.424Z,29.530001
2022-08-17T10:45:21.625Z,29.68
2022-08-17T10:48:46.851Z,29.780001
2022-08-17T10:52:12.212Z,29.9
2022-08-17T10:55:37.407Z,30.07
2022-08-17T10:59:02.607Z,30.219999
2022-08-17T11:02:27.804Z,30.290001
2022-08-17T11:05:53.023Z,30.32
2022-08-17T11:09:18.242Z,30.360001
2022-08-17T11:12:43.469Z,30.440001
2022-08-17T11:16:08.661Z,30.459999
2022-08-17T11:19:33.864Z,30.51
2022-08-17T11:22:59.108Z,30.59
2022-08-17T11:26:24.287Z,30.67
2022-08-17T11:29:53.069Z,30.549999
2022-08-17T11:33:14.767Z,30.34
2022-08-17T11:36:40.054Z,30.110001
2022-08-17T11:40:05.413Z,29.99
2022-08-17T11:43:30.581Z,29.85
2022-08-17T11:46:55.791Z,29.73
2022-08-17T11:50:24.514Z,29.66
2022-08-17T11:53:46.270Z,29.58
2022-08-17T11:57:11.507Z,29.530001
2022-08-17T12:00:36.775Z,29.620001
2022-08-17T12:04:02.088Z,29.780001
2022-08-17T12:07:27.319Z,30.030001
2022-08-17T12:10:52.603Z,30.23
2022-08-17T12:14:21.323Z,30.389999
2022-08-17T12:17:43.190Z,30.540001
2022-08-17T12:21:08.301Z,30.690001
2022-08-17T12:24:33.509Z,30.790001
2022-08-17T12:28:04.710Z,30.940001
2022-08-17T12:31:24.013Z,31
2022-08-17T12:34:49.230Z,31.049999
2022-08-17T12:38:31.859Z,31.059999
2022-08-17T12:41:39.741Z,31.08
2022-08-17T12:45:04.964Z,31.23
2022-08-17T12:48:30.156Z,31.4
2022-08-17T12:51:55.485Z,31.57
2022-08-17T12:55:32.673Z,31.66
2022-08-17T12:59:07.542Z,31.68
2022-08-17T13:02:32.819Z,31.690001
2022-08-17T13:05:58.022Z,31.77
2022-08-17T13:09:23.232Z,31.809999
2022-08-17T13:12:48.509Z,31.870001
2022-08-17T13:16:13.865Z,31.940001
2022-08-17T13:19:40.618Z,31.969999
2022-08-17T13:23:07.559Z,31.870001
2022-08-17T13:26:29.655Z,31.67
2022-08-17T13:29:54.963Z,31.48
2022-08-17T13:33:20.148Z,31.389999
2022-08-17T13:36:45.374Z,31.4
2022-08-17T13:40:10.689Z,31.49
2022-08-17T13:43:36.780Z,31.530001
2022-08-17T13:47:16.609Z,31.6
2022-08-17T13:50:41.831Z,31.65
2022-08-17T13:54:07.063Z,31.59
2022-08-17T13:57:32.272Z,31.57
2022-08-17T14:00:57.484Z,31.610001
2022-08-17T14:04:22.706Z,31.59
2022-08-17T14:07:47.943Z,31.48
2022-08-17T14:11:13.156Z,31.370001
2022-08-17T14:14:38.358Z,31.33
2022-08-17T14:18:03.647Z,31.290001
2022-08-17T14:21:28.833Z,31.26
2022-08-17T14:24:54.015Z,31.26
2022-08-17T14:28:19.371Z,31.24
2022-08-17T15:04:11.813Z,28.16
2022-08-17T15:07:37.028Z,29.059999
2022-08-17T15:11:02.258Z,29.200001
2022-08-17T15:14:27.447Z,29.34
2022-08-17T15:17:52.686Z,29.469999
2022-08-17T15:21:17.881Z,29.6
2022-08-17T15:24:43.088Z,29.690001
2022-08-17T15:28:08.312Z,29.74
2022-08-17T15:31:33.529Z,29.77
2022-08-17T15:34:58.743Z,29.780001
2022-08-17T15:38:23.949Z,29.77
2022-08-17T15:41:57.992Z,29.76
2022-08-17T15:45:14.371Z,29.75
2022-08-17T15:48:39.568Z,29.73
2022-08-17T15:52:04.772Z,29.700001
2022-08-17T15:55:29.974Z,29.65
2022-08-17T15:58:55.181Z,29.6
2022-08-17T16:03:01.996Z,29.57
2022-08-17T16:05:46.200Z,29.52
2022-08-17T16:09:10.921Z,29.51
2022-08-17T16:12:36.146Z,29.469999
2022-08-17T16:16:01.356Z,29.43
2022-08-17T16:19:26.552Z,29.389999
2022-08-17T16:22:51.949Z,29.360001
2022-08-17T16:26:17.013Z,29.299999
2022-08-17T18:12:49.224Z,26.639999
